Time;durP1;ratioP1;P1;durP2;ratioP2;P2;SDS_P1;SDS_P2;PMS_P1;PMS_P2;Temp;Humidity;BMP_temperature;BMP_pressure;BME280_temperature;BME280_humidity;BME280_pressure;Samples;Min_cycle;Max_cycle;Signal;HPM_P1;HPM_P2
2022/12/13 08:51:27;;;;;;;9.00;5.10;;;-2.70;99.90;;;;;;4884530;23;20238;-71
2022/12/13 08:53:54;;;;;;;8.03;5.20;;;-2.60;99.90;;;;;;4878863;29;20219;-72
2022/12/13 08:56:21;;;;;;;10.07;4.77;;;-2.60;99.90;;;;;;4878805;29;20593;-72
2022/12/13 08:58:50;;;;;;;7.07;4.03;;;-2.60;99.90;;;;;;4878684;29;20242;-72
2022/12/13 09:01:17;;;;;;;10.63;5.20;;;-2.60;99.90;;;;;;4878414;29;20219;-74
2022/12/13 09:03:44;;;;;;;10.43;4.83;;;-2.70;99.90;;;;;;4897243;29;20216;-73
2022/12/13 09:06:14;;;;;;;16.97;5.33;;;-2.70;99.90;;;;;;4897724;29;20245;-71
2022/12/13 09:08:43;;;;;;;14.50;5.57;;;-2.60;99.90;;;;;;4889001;29;20230;-74
2022/12/13 09:11:11;;;;;;;12.30;5.00;;;-2.60;99.90;;;;;;4878739;29;20207;-73
2022/12/13 09:13:40;;;;;;;10.87;5.07;;;-2.70;99.90;;;;;;4878863;29;20210;-74
2022/12/13 09:16:13;;;;;;;7.43;4.10;;;-2.50;99.90;;;;;;4878839;29;20215;-74
2022/12/13 09:18:40;;;;;;;11.17;4.40;;;-2.40;99.90;;;;;;4882330;29;20227;-73
2022/12/13 09:21:07;;;;;;;15.43;5.67;;;-2.40;99.90;;;;;;4882746;29;20657;-74
2022/12/13 09:23:34;;;;;;;24.53;4.73;;;-2.50;99.90;;;;;;4882382;29;20666;-74
2022/12/13 09:26:03;;;;;;;10.57;6.27;;;-2.50;99.90;;;;;;4882573;29;20245;-73
2022/12/13 09:28:30;;;;;;;9.63;3.70;;;-2.60;99.90;;;;;;4882533;29;20242;-74
2022/12/13 09:30:57;;;;;;;8.23;3.80;;;-2.60;99.90;;;;;;4882270;29;20214;-73
2022/12/13 09:33:24;;;;;;;7.57;4.50;;;-2.70;99.90;;;;;;4882338;29;20221;-76
2022/12/13 09:35:51;;;;;;;12.47;4.73;;;-2.70;99.90;;;;;;4882408;29;20210;-73
2022/12/13 09:38:18;;;;;;;7.17;3.40;;;-2.60;99.90;;;;;;4882105;29;20239;-72
2022/12/13 09:40:48;;;;;;;9.83;4.37;;;-2.50;99.90;;;;;;4882140;29;20221;-74
2022/12/13 09:43:24;;;;;;;9.77;3.57;;;-2.40;99.90;;;;;;4882209;29;20614;-75
2022/12/13 09:45:51;;;;;;;9.30;4.37;;;-2.10;99.90;;;;;;4882194;29;20242;-74
2022/12/13 09:48:20;;;;;;;9.00;4.03;;;-2.00;99.90;;;;;;4882100;29;20234;-75
2022/12/13 09:50:48;;;;;;;11.27;5.63;;;-2.10;99.90;;;;;;4881800;29;20211;-75
2022/12/13 09:53:18;;;;;;;7.43;4.37;;;-2.10;99.90;;;;;;4881553;29;20247;-74
2022/12/13 09:55:47;;;;;;;8.67;4.00;;;-2.00;99.90;;;;;;4881884;29;20215;-74
2022/12/13 09:58:18;;;;;;;9.70;4.97;;;-1.80;99.90;;;;;;4881851;29;20706;-74
2022/12/13 10:00:49;;;;;;;8.67;4.73;;;-1.50;99.90;;;;;;4881868;29;20215;-75
2022/12/13 10:03:18;;;;;;;8.03;4.03;;;-1.50;99.90;;;;;;4881821;29;20207;-74
2022/12/13 10:05:50;;;;;;;8.17;4.40;;;-1.40;99.90;;;;;;4881856;29;20238;-74
2022/12/13 10:08:23;;;;;;;12.03;4.87;;;-1.40;99.90;;;;;;4881672;29;20270;-74
2022/12/13 10:10:51;;;;;;;10.07;4.13;;;-1.40;99.90;;;;;;4881327;29;20248;-75
2022/12/13 10:13:24;;;;;;;9.60;4.10;;;-1.50;99.90;;;;;;4881350;29;20222;-73
2022/12/13 10:15:54;;;;;;;8.93;3.80;;;-1.40;99.90;;;;;;4881507;29;20225;-73
2022/12/13 10:18:31;;;;;;;8.17;4.40;;;-1.40;99.90;;;;;;4881734;29;20262;-73
2022/12/13 10:20:58;;;;;;;9.80;5.13;;;-1.50;99.90;;;;;;4881548;29;20211;-72
2022/12/13 10:23:25;;;;;;;10.10;5.33;;;-1.50;99.90;;;;;;4881347;29;20215;-73
2022/12/13 10:25:54;;;;;;;7.93;4.23;;;-1.40;99.90;;;;;;4881605;29;20586;-73
2022/12/13 10:28:29;;;;;;;8.57;4.17;;;-1.30;99.90;;;;;;4880882;29;20231;-72
2022/12/13 10:30:57;;;;;;;9.13;4.37;;;-1.30;99.90;;;;;;4880992;29;20221;-73
2022/12/13 10:33:26;;;;;;;8.47;4.30;;;-1.30;99.90;;;;;;4881268;29;20298;-75
2022/12/13 10:36:08;;;;;;;10.37;4.27;;;-1.20;99.90;;;;;;4881676;29;20207;-78
2022/12/13 10:38:38;;;;;;;5.73;3.33;;;-1.30;99.90;;;;;;4880633;29;20227;-75
2022/12/13 10:41:26;;;;;;;8.30;3.50;;;-1.30;99.90;;;;;;4881027;29;20662;-75
2022/12/13 10:44:17;;;;;;;8.63;3.90;;;-1.20;99.90;;;;;;4881028;29;20217;-74
2022/12/13 10:47:06;;;;;;;8.93;4.03;;;-1.10;99.90;;;;;;4862589;29;20247;-75
2022/12/13 10:49:40;;;;;;;9.63;4.23;;;-1.00;99.90;;;;;;4864628;29;20247;-76
2022/12/13 10:52:21;;;;;;;11.33;4.30;;;-0.80;99.90;;;;;;4881008;29;20219;-75
2022/12/13 10:54:49;;;;;;;10.10;5.03;;;-0.80;99.90;;;;;;4881350;29;20211;-75
2022/12/13 10:57:17;;;;;;;11.73;4.23;;;-0.80;99.90;;;;;;4880825;29;20215;-75
2022/12/13 10:59:47;;;;;;;14.10;5.43;;;-0.60;99.90;;;;;;4880645;29;20222;-75
2022/12/13 11:02:35;;;;;;;10.30;4.30;;;-0.80;99.90;;;;;;4881003;29;20208;-75
2022/12/13 11:05:24;;;;;;;9.43;5.10;;;-0.80;99.90;;;;;;4880879;29;20218;-74
2022/12/13 11:07:50;;;;;;;9.80;4.07;;;-0.80;99.90;;;;;;4880412;29;20243;-74
2022/12/13 11:10:23;;;;;;;7.97;3.80;;;-0.70;99.90;;;;;;4880729;29;20214;-74
2022/12/13 11:12:51;;;;;;;7.40;4.60;;;-0.80;99.90;;;;;;4880542;29;20211;-74
2022/12/13 11:15:22;;;;;;;13.47;4.17;;;-0.80;99.90;;;;;;4880987;29;20217;-74
2022/12/13 11:17:52;;;;;;;7.90;4.83;;;-0.90;99.90;;;;;;4880207;29;20238;-73
2022/12/13 11:20:22;;;;;;;10.37;4.13;;;-0.70;99.90;;;;;;4879934;29;20686;-74
2022/12/13 11:22:58;;;;;;;6.00;3.63;;;-0.70;99.90;;;;;;4880713;29;20243;-74
2022/12/13 11:25:30;;;;;;;9.67;4.53;;;-0.70;99.90;;;;;;4880867;29;20217;-75
2022/12/13 11:28:06;;;;;;;14.73;4.87;;;-0.70;99.90;;;;;;4880324;29;20323;-75
2022/12/13 11:30:43;;;;;;;8.17;3.87;;;-0.50;99.90;;;;;;4880382;29;20801;-74
2022/12/13 11:33:21;;;;;;;7.87;4.10;;;-0.50;99.90;;;;;;4879638;29;20221;-73
2022/12/13 11:36:02;;;;;;;10.87;3.90;;;-0.30;99.90;;;;;;4879813;29;20214;-73
2022/12/13 11:38:34;;;;;;;12.03;4.67;;;-0.10;99.90;;;;;;4880246;29;20227;-74
2022/12/13 11:41:10;;;;;;;7.80;3.87;;;-0.10;99.90;;;;;;4879764;29;20211;-74
2022/12/13 11:43:41;;;;;;;10.13;4.30;;;-0.20;99.90;;;;;;4880201;29;20309;-74
2022/12/13 11:46:17;;;;;;;10.23;4.40;;;0.00;99.90;;;;;;4880279;29;20655;-74
2022/12/13 11:48:47;;;;;;;11.43;4.63;;;0.20;99.90;;;;;;4880159;29;20242;-73
2022/12/13 11:51:22;;;;;;;7.60;4.27;;;0.40;99.90;;;;;;4880181;29;20230;-73
2022/12/13 11:53:56;;;;;;;13.40;4.67;;;0.70;99.90;;;;;;4879865;29;20207;-74
2022/12/13 11:56:26;;;;;;;9.27;3.40;;;0.80;99.90;;;;;;4880369;29;20213;-73
2022/12/13 11:59:02;;;;;;;8.83;4.60;;;0.50;99.90;;;;;;4879868;29;20231;-73
2022/12/13 12:01:35;;;;;;;6.60;3.90;;;0.50;99.90;;;;;;4879985;29;20248;-73
2022/12/13 12:04:12;;;;;;;7.60;3.80;;;0.40;99.90;;;;;;4879959;29;20234;-73
2022/12/13 12:06:44;;;;;;;9.37;4.17;;;0.40;99.90;;;;;;4879795;29;20234;-73
2022/12/13 12:09:15;;;;;;;4.83;3.03;;;0.50;99.90;;;;;;4879932;29;20239;-73
2022/12/13 12:11:48;;;;;;;8.97;3.80;;;0.40;99.90;;;;;;4879577;29;20217;-73
2022/12/13 12:14:19;;;;;;;14.43;4.37;;;0.20;99.90;;;;;;4879858;29;20301;-73
2022/12/13 12:16:52;;;;;;;12.83;4.53;;;0.20;99.90;;;;;;4879555;29;20215;-72
2022/12/13 12:19:21;;;;;;;9.83;4.77;;;0.40;99.90;;;;;;4879423;29;20239;-73
2022/12/13 12:22:02;;;;;;;9.43;4.47;;;0.30;99.90;;;;;;4879505;29;20212;-73
2022/12/13 12:24:36;;;;;;;9.47;4.53;;;0.50;99.90;;;;;;4879824;29;20242;-73
2022/12/13 12:27:21;;;;;;;11.33;4.20;;;0.50;99.90;;;;;;4879193;29;20237;-73
2022/12/13 12:30:07;;;;;;;10.90;5.17;;;0.80;99.90;;;;;;4879796;29;20314;-72
2022/12/13 12:32:43;;;;;;;13.03;4.30;;;1.00;99.90;;;;;;4879183;29;20222;-73
2022/12/13 12:35:39;;;;;;;12.47;4.67;;;1.00;99.90;;;;;;4879525;29;20219;-73
2022/12/13 12:38:20;;;;;;;9.03;3.93;;;1.00;99.90;;;;;;4862976;29;20230;-73
2022/12/13 12:41:12;;;;;;;8.33;4.43;;;0.90;99.90;;;;;;4879579;29;20215;-73
2022/12/13 12:43:41;;;;;;;9.67;4.63;;;1.00;99.90;;;;;;4879352;29;20207;-73
2022/12/13 12:46:25;;;;;;;8.30;4.20;;;1.10;99.90;;;;;;4879245;29;20548;-73
2022/12/13 12:49:27;;;;;;;9.17;4.40;;;0.90;99.90;;;;;;4879388;29;20235;-73
2022/12/13 12:52:01;;;;;;;9.87;3.73;;;0.80;99.90;;;;;;4879003;29;20597;-73
2022/12/13 12:54:42;;;;;;;8.03;3.97;;;0.70;99.90;;;;;;4879320;29;20566;-73
2022/12/13 12:57:18;;;;;;;7.20;4.03;;;0.70;99.90;;;;;;4878984;29;20211;-73
2022/12/13 12:59:54;;;;;;;8.07;3.80;;;0.80;99.90;;;;;;4879110;29;20210;-73
2022/12/13 13:02:25;;;;;;;10.93;4.93;;;0.80;99.90;;;;;;4878991;29;20217;-73
2022/12/13 13:04:57;;;;;;;11.80;4.83;;;0.80;99.90;;;;;;4878879;29;20556;-73
2022/12/13 13:07:30;;;;;;;9.93;4.47;;;0.80;99.90;;;;;;4878779;29;20243;-73
2022/12/13 13:09:58;;;;;;;10.63;4.83;;;0.70;99.90;;;;;;4879070;29;20314;-73
2022/12/13 13:12:26;;;;;;;8.97;4.23;;;0.80;99.90;;;;;;4879286;29;20311;-73
2022/12/13 13:14:53;;;;;;;9.73;4.93;;;0.80;99.90;;;;;;4879502;29;20211;-73
2022/12/13 13:17:45;;;;;;;7.73;4.10;;;0.80;99.90;;;;;;4878858;29;20215;-73
2022/12/13 13:20:19;;;;;;;10.57;3.97;;;0.90;99.90;;;;;;4878910;29;20576;-73
2022/12/13 13:22:47;;;;;;;8.13;3.87;;;0.90;99.90;;;;;;4875235;29;20206;-72
2022/12/13 13:25:29;;;;;;;5.57;2.80;;;0.90;99.90;;;;;;4874943;29;20235;-73
2022/12/13 13:28:06;;;;;;;8.40;4.10;;;0.70;99.90;;;;;;4858926;29;20248;-74
2022/12/13 13:30:34;;;;;;;9.77;4.07;;;0.80;99.90;;;;;;4866122;29;20215;-74
2022/12/13 13:33:01;;;;;;;9.97;4.77;;;0.80;99.90;;;;;;4877482;29;20215;-74
2022/12/13 13:35:55;;;;;;;7.80;3.70;;;0.80;99.90;;;;;;4877186;29;20222;-74
2022/12/13 13:38:52;;;;;;;6.57;3.40;;;0.70;99.90;;;;;;4876592;29;20239;-75
2022/12/13 13:41:41;;;;;;;11.37;3.97;;;0.70;99.90;;;;;;4877629;29;20571;-73
2022/12/13 13:44:34;;;;;;;10.53;4.53;;;0.60;99.90;;;;;;4870124;29;20204;-71
2022/12/13 13:47:11;;;;;;;12.00;4.53;;;0.50;99.90;;;;;;4876934;29;20241;-73
2022/12/13 13:49:50;;;;;;;14.10;4.87;;;0.60;99.90;;;;;;4877409;29;20227;-74
2022/12/13 13:52:20;;;;;;;8.43;4.50;;;0.50;99.90;;;;;;4876394;29;20227;-72
2022/12/13 13:55:19;;;;;;;9.57;4.43;;;0.50;99.90;;;;;;4876428;29;20219;-75
2022/12/13 13:58:33;;;;;;;13.50;4.20;;;0.60;99.90;;;;;;4877177;29;20702;-72
2022/12/13 14:01:50;;;;;;;7.17;3.57;;;0.60;99.90;;;;;;4876649;29;20219;-72
2022/12/13 14:04:51;;;;;;;14.47;4.50;;;0.60;99.90;;;;;;4840891;29;20296;-72
2022/12/13 14:07:58;;;;;;;11.83;3.57;;;0.60;99.90;;;;;;4840466;29;20254;-73
2022/12/13 14:11:01;;;;;;;7.23;3.10;;;0.50;99.90;;;;;;4821040;29;20228;-73
2022/12/13 14:14:08;;;;;;;5.90;2.43;;;0.60;99.90;;;;;;4839508;29;20218;-74
2022/12/13 14:17:15;;;;;;;10.43;4.17;;;0.50;99.90;;;;;;4879839;29;20548;-70
2022/12/13 14:20:19;;;;;;;11.27;4.57;;;0.50;99.90;;;;;;4880426;29;20207;-72
2022/12/13 14:22:51;;;;;;;10.97;4.63;;;0.50;99.90;;;;;;4872388;29;20222;-72
2022/12/13 14:25:41;;;;;;;16.30;4.80;;;0.40;99.90;;;;;;4880139;29;20671;-73
2022/12/13 14:28:16;;;;;;;9.17;4.47;;;0.60;99.90;;;;;;4878763;29;20246;-72
2022/12/13 14:30:44;;;;;;;14.97;4.17;;;0.50;99.90;;;;;;4879202;29;20210;-76
2022/12/13 14:33:19;;;;;;;11.57;4.90;;;0.30;99.90;;;;;;4879799;29;20590;-74
2022/12/13 14:35:52;;;;;;;10.33;4.57;;;0.40;99.90;;;;;;4879418;29;20214;-75
2022/12/13 14:38:22;;;;;;;14.67;4.97;;;0.30;99.90;;;;;;4879301;29;20242;-74
2022/12/13 14:40:53;;;;;;;11.33;4.90;;;0.40;99.90;;;;;;4879723;29;20218;-73
2022/12/13 14:43:24;;;;;;;8.10;4.30;;;0.40;99.90;;;;;;4880658;29;20239;-73
2022/12/13 14:45:54;;;;;;;7.30;4.47;;;0.30;99.90;;;;;;4862304;29;20218;-71
2022/12/13 14:48:23;;;;;;;16.13;5.53;;;0.40;99.90;;;;;;4867200;29;20253;-72
2022/12/13 14:50:51;;;;;;;15.57;5.60;;;0.40;99.90;;;;;;4880577;29;20215;-73
2022/12/13 14:53:25;;;;;;;14.77;5.20;;;0.40;99.90;;;;;;4880930;29;20211;-70
2022/12/13 14:56:07;;;;;;;11.80;5.40;;;0.30;99.90;;;;;;4861969;29;20517;-70
2022/12/13 14:58:35;;;;;;;12.03;5.07;;;0.20;99.90;;;;;;4862162;29;20232;-73
2022/12/13 15:01:03;;;;;;;11.47;5.00;;;0.20;99.90;;;;;;4861960;29;20287;-73
2022/12/13 15:03:29;;;;;;;13.77;6.03;;;0.10;99.90;;;;;;4862700;29;20211;-72
2022/12/13 15:05:58;;;;;;;12.80;5.43;;;0.20;99.90;;;;;;4880302;29;20711;-73
2022/12/13 15:08:26;;;;;;;11.33;5.47;;;0.20;99.90;;;;;;4880061;29;20249;-72
2022/12/13 15:10:55;;;;;;;13.67;5.50;;;0.40;99.90;;;;;;4880627;29;20215;-73
2022/12/13 15:13:28;;;;;;;13.40;5.80;;;0.50;99.90;;;;;;4879749;29;20219;-72
2022/12/13 15:15:59;;;;;;;13.33;5.30;;;0.50;99.90;;;;;;4879763;29;20207;-72
2022/12/13 15:18:28;;;;;;;13.30;5.67;;;0.60;99.90;;;;;;4880177;29;20231;-73
2022/12/13 15:20:56;;;;;;;11.33;5.27;;;0.40;99.90;;;;;;4880558;29;20218;-73
2022/12/13 15:23:27;;;;;;;24.23;5.87;;;0.30;99.90;;;;;;4879813;29;20242;-72
2022/12/13 15:25:59;;;;;;;15.83;5.80;;;0.30;99.90;;;;;;4861606;29;20222;-72
2022/12/13 15:28:30;;;;;;;12.63;5.57;;;0.40;99.90;;;;;;4878063;29;20298;-72
2022/12/13 15:30:59;;;;;;;14.90;5.87;;;0.40;99.90;;;;;;4882726;29;20589;-73
2022/12/13 15:33:27;;;;;;;12.83;6.00;;;0.40;99.90;;;;;;4883047;29;20214;-75
2022/12/13 15:36:08;;;;;;;15.30;6.97;;;0.30;99.90;;;;;;4880279;29;20226;-75
2022/12/13 15:38:36;;;;;;;13.20;5.97;;;0.20;99.90;;;;;;4879389;29;20230;-74
2022/12/13 15:41:04;;;;;;;13.77;6.30;;;0.10;99.90;;;;;;4878500;29;20218;-74
2022/12/13 15:43:37;;;;;;;14.83;6.30;;;0.00;99.90;;;;;;4878452;29;20298;-75
2022/12/13 15:46:06;;;;;;;14.97;4.93;;;0.00;99.90;;;;;;4879006;29;20218;-74
2022/12/13 15:48:37;;;;;;;14.20;5.90;;;0.00;99.90;;;;;;4878360;29;20269;-74
2022/12/13 15:51:06;;;;;;;14.53;6.00;;;-0.10;99.90;;;;;;4878373;29;20211;-74
2022/12/13 15:53:34;;;;;;;15.23;6.33;;;-0.10;99.90;;;;;;4878362;29;20306;-74
2022/12/13 15:56:00;;;;;;;15.17;6.93;;;-0.10;99.90;;;;;;4878112;29;20218;-73
2022/12/13 15:58:32;;;;;;;15.43;6.23;;;-0.20;99.90;;;;;;4877728;29;20728;-76
2022/12/13 16:01:03;;;;;;;11.97;5.73;;;-0.30;99.90;;;;;;4879213;29;20556;-75
2022/12/13 16:03:40;;;;;;;14.53;5.23;;;-0.30;99.90;;;;;;4879178;29;20221;-75
2022/12/13 16:06:08;;;;;;;12.27;5.70;;;-0.40;99.90;;;;;;4879314;29;20214;-75
2022/12/13 16:08:38;;;;;;;14.60;7.13;;;-0.50;99.90;;;;;;4878558;29;20250;-75
2022/12/13 16:11:06;;;;;;;17.07;7.13;;;-0.40;99.90;;;;;;4879664;29;20221;-75
2022/12/13 16:13:34;;;;;;;15.87;6.63;;;-0.20;99.90;;;;;;4879393;29;20267;-76
2022/12/13 16:16:22;;;;;;;17.80;6.27;;;-0.10;99.90;;;;;;4879339;29;20215;-74
2022/12/13 16:18:53;;;;;;;13.27;6.10;;;-0.30;99.90;;;;;;4879682;29;20595;-75
2022/12/13 16:21:20;;;;;;;20.43;7.93;;;-0.30;99.90;;;;;;4879254;29;20693;-75
2022/12/13 16:23:47;;;;;;;19.43;7.07;;;-0.30;99.90;;;;;;4878618;29;20211;-75
2022/12/13 16:26:15;;;;;;;19.03;8.20;;;-0.20;99.90;;;;;;4878210;29;20215;-76
2022/12/13 16:28:42;;;;;;;9.73;5.17;;;-0.30;99.90;;;;;;4878635;29;20277;-75
2022/12/13 16:31:22;;;;;;;14.17;6.57;;;-0.20;99.90;;;;;;4879088;29;20220;-76
2022/12/13 16:33:49;;;;;;;14.90;5.93;;;-0.20;99.90;;;;;;4878929;29;20203;-75
2022/12/13 16:36:16;;;;;;;19.07;8.33;;;-0.20;99.90;;;;;;4878784;29;20217;-74
2022/12/13 16:38:42;;;;;;;17.30;6.03;;;-0.40;99.90;;;;;;4879024;29;20598;-75
2022/12/13 16:41:09;;;;;;;15.67;6.83;;;-0.50;99.90;;;;;;4878905;29;20544;-76
2022/12/13 16:43:39;;;;;;;15.30;7.33;;;-0.50;99.90;;;;;;4878791;29;20209;-76
2022/12/13 16:46:07;;;;;;;23.93;8.73;;;-0.40;99.90;;;;;;4878753;29;20215;-75
2022/12/13 16:48:35;;;;;;;16.17;7.23;;;-0.10;99.90;;;;;;4878340;29;20243;-75
2022/12/13 16:51:04;;;;;;;19.27;6.97;;;-0.10;99.90;;;;;;4878361;29;20552;-75
2022/12/13 16:53:31;;;;;;;12.60;6.27;;;-0.20;99.90;;;;;;4878567;29;20836;-76
2022/12/13 16:55:58;;;;;;;16.93;6.90;;;-0.20;99.90;;;;;;4879037;29;20219;-79
2022/12/13 16:58:25;;;;;;;15.47;7.17;;;-0.20;99.90;;;;;;4878785;29;20235;-75
2022/12/13 17:00:51;;;;;;;17.40;6.87;;;-0.10;99.90;;;;;;4878954;29;20250;-75
2022/12/13 17:03:18;;;;;;;17.50;6.63;;;-0.30;99.90;;;;;;4878885;29;20300;-74
2022/12/13 17:05:47;;;;;;;18.60;6.93;;;-0.20;99.90;;;;;;4878512;29;20221;-74
2022/12/13 17:08:15;;;;;;;16.13;7.47;;;-0.20;99.90;;;;;;4877825;29;20257;-74
2022/12/13 17:10:44;;;;;;;10.63;5.47;;;-0.40;99.90;;;;;;4878744;29;20325;-75
2022/12/13 17:13:11;;;;;;;21.77;8.57;;;-0.50;99.90;;;;;;4879082;29;20217;-73
2022/12/13 17:15:38;;;;;;;13.57;6.90;;;-0.50;99.90;;;;;;4878548;29;20219;-75
2022/12/13 17:18:05;;;;;;;16.27;7.20;;;-0.50;99.90;;;;;;4878214;29;20239;-74
2022/12/13 17:20:31;;;;;;;17.77;7.17;;;-0.40;99.90;;;;;;4878163;29;20214;-74
2022/12/13 17:23:00;;;;;;;15.40;7.30;;;-0.30;99.90;;;;;;4878367;29;20207;-73
2022/12/13 17:25:27;;;;;;;14.73;6.40;;;-0.30;99.90;;;;;;4878897;29;20274;-74
2022/12/13 17:27:54;;;;;;;23.10;8.17;;;-0.20;99.90;;;;;;4878294;29;20327;-75
2022/12/13 17:30:22;;;;;;;17.13;7.50;;;-0.10;99.90;;;;;;4879029;29;20207;-75
2022/12/13 17:32:49;;;;;;;14.77;7.07;;;-0.10;99.90;;;;;;4878953;29;20217;-74
2022/12/13 17:35:16;;;;;;;17.20;7.97;;;-0.10;99.90;;;;;;4878762;29;20570;-74
2022/12/13 17:37:43;;;;;;;14.50;7.33;;;-0.10;99.90;;;;;;4879448;29;20309;-74
2022/12/13 17:40:11;;;;;;;14.57;7.07;;;0.00;99.90;;;;;;4882407;29;20218;-72
2022/12/13 17:42:38;;;;;;;13.70;6.63;;;-0.20;99.90;;;;;;4882607;29;20225;-75
2022/12/13 17:45:06;;;;;;;19.97;7.53;;;-0.20;99.90;;;;;;4882266;29;20223;-74
2022/12/13 17:47:32;;;;;;;14.90;7.10;;;-0.10;99.90;;;;;;4882315;29;20602;-74
2022/12/13 17:49:59;;;;;;;15.77;7.33;;;-0.10;99.90;;;;;;4882053;29;20243;-75
2022/12/13 17:52:26;;;;;;;21.67;8.13;;;0.00;99.90;;;;;;4882247;29;20219;-75
2022/12/13 17:54:53;;;;;;;15.67;7.37;;;0.00;99.90;;;;;;4882204;29;20670;-75
2022/12/13 17:57:21;;;;;;;13.30;6.63;;;-0.20;99.90;;;;;;4882596;29;20221;-75
2022/12/13 17:59:48;;;;;;;14.67;7.00;;;-0.30;99.90;;;;;;4882387;29;20215;-73
2022/12/13 18:02:21;;;;;;;18.40;7.63;;;-0.30;99.90;;;;;;4882016;29;20211;-72
2022/12/13 18:04:48;;;;;;;15.90;6.70;;;-0.40;99.90;;;;;;4881273;29;20313;-72
2022/12/13 18:07:15;;;;;;;21.57;7.10;;;-0.40;99.90;;;;;;4881160;29;20271;-71
2022/12/13 18:09:42;;;;;;;18.50;7.10;;;-0.40;99.90;;;;;;4881634;29;20239;-71
2022/12/13 18:12:09;;;;;;;13.93;7.17;;;-0.50;99.90;;;;;;4881678;29;20233;-74
2022/12/13 18:14:37;;;;;;;17.97;7.23;;;-0.40;99.90;;;;;;4881582;29;20573;-73
2022/12/13 18:17:04;;;;;;;13.97;6.40;;;-0.50;99.90;;;;;;4881450;29;20211;-74
2022/12/13 18:19:30;;;;;;;16.93;6.73;;;-0.40;99.90;;;;;;4881824;29;20207;-72
2022/12/13 18:21:57;;;;;;;15.10;6.97;;;-0.40;99.90;;;;;;4881333;29;20215;-71
2022/12/13 18:24:24;;;;;;;13.33;5.23;;;-0.60;99.90;;;;;;4881064;29;20219;-73
2022/12/13 18:26:51;;;;;;;18.23;7.60;;;-0.60;99.90;;;;;;4881276;29;20211;-74
2022/12/13 18:29:18;;;;;;;14.70;6.40;;;-0.70;99.90;;;;;;4880869;29;20730;-72
2022/12/13 18:31:46;;;;;;;14.00;6.03;;;-0.60;99.90;;;;;;4880035;29;20215;-72
2022/12/13 18:34:13;;;;;;;15.73;6.23;;;-0.70;99.90;;;;;;4880759;29;20219;-71
2022/12/13 18:36:39;;;;;;;18.87;7.17;;;-0.60;99.90;;;;;;4880873;29;20682;-73
2022/12/13 18:39:06;;;;;;;19.43;7.00;;;-0.50;99.90;;;;;;4881074;29;20598;-73
2022/12/13 18:41:34;;;;;;;12.53;6.53;;;-0.70;99.90;;;;;;4880801;29;20211;-73
2022/12/13 18:44:02;;;;;;;12.60;5.03;;;-0.70;99.90;;;;;;4880926;29;20218;-73
2022/12/13 18:46:31;;;;;;;10.40;5.40;;;-0.70;99.90;;;;;;4881076;29;20211;-73
2022/12/13 18:48:59;;;;;;;15.93;6.10;;;-0.70;99.90;;;;;;4880467;29;20245;-73
2022/12/13 18:51:27;;;;;;;15.13;6.30;;;-0.70;99.90;;;;;;4880633;29;20229;-74
2022/12/13 18:53:54;;;;;;;14.93;6.20;;;-0.60;99.90;;;;;;4880384;29;20765;-73
2022/12/13 18:56:22;;;;;;;12.20;6.40;;;-0.70;99.90;;;;;;4880515;29;20219;-72
2022/12/13 18:58:51;;;;;;;16.77;6.53;;;-0.70;99.90;;;;;;4880186;29;20238;-72
2022/12/13 19:01:19;;;;;;;14.60;6.53;;;-0.80;99.90;;;;;;4880294;29;20396;-73
2022/12/13 19:03:47;;;;;;;12.00;5.93;;;-0.70;99.90;;;;;;4879292;29;20204;-72
2022/12/13 19:06:18;;;;;;;12.13;6.20;;;-0.70;99.90;;;;;;4879157;29;20209;-72
2022/12/13 19:08:47;;;;;;;15.13;6.77;;;-0.70;99.90;;;;;;4876511;29;20698;-72
2022/12/13 19:11:14;;;;;;;12.47;6.10;;;-0.70;99.90;;;;;;4879117;29;20207;-72
2022/12/13 19:13:41;;;;;;;11.63;5.80;;;-0.70;99.90;;;;;;4879148;29;20210;-72
2022/12/13 19:16:11;;;;;;;15.07;6.07;;;-0.70;99.90;;;;;;4879303;29;20211;-73
2022/12/13 19:18:37;;;;;;;13.63;6.17;;;-0.70;99.90;;;;;;4879016;29;20672;-73
2022/12/13 19:21:07;;;;;;;16.13;6.63;;;-0.80;99.90;;;;;;4876679;29;20199;-72
2022/12/13 19:23:36;;;;;;;12.93;5.80;;;-0.90;99.90;;;;;;4878758;29;20211;-72
2022/12/13 19:26:05;;;;;;;11.93;5.40;;;-1.00;99.90;;;;;;4878816;29;20208;-72
2022/12/13 19:28:32;;;;;;;11.00;5.60;;;-1.00;99.90;;;;;;4878723;29;20632;-72
2022/12/13 19:30:58;;;;;;;13.67;5.70;;;-1.10;99.90;;;;;;4878995;29;20203;-73
2022/12/13 19:33:26;;;;;;;13.27;6.20;;;-1.10;99.90;;;;;;4876921;29;20681;-73
2022/12/13 19:35:53;;;;;;;13.77;5.60;;;-1.20;99.90;;;;;;4879060;29;20607;-73
2022/12/13 19:38:20;;;;;;;11.87;5.37;;;-1.20;99.90;;;;;;4878642;29;20231;-72
2022/12/13 19:40:48;;;;;;;29.70;5.43;;;-1.20;99.90;;;;;;4878694;29;20199;-72
2022/12/13 19:43:15;;;;;;;13.17;4.53;;;-1.30;99.90;;;;;;4878630;29;20293;-71
2022/12/13 19:45:45;;;;;;;10.90;5.20;;;-1.40;99.90;;;;;;4878632;29;20203;-73
2022/12/13 19:48:12;;;;;;;11.37;5.33;;;-1.40;99.90;;;;;;4878549;29;20223;-74
2022/12/13 19:50:39;;;;;;;9.67;4.97;;;-1.40;99.90;;;;;;4879072;29;20203;-74
2022/12/13 19:53:07;;;;;;;12.87;5.20;;;-1.40;99.90;;;;;;4875781;29;20241;-74
2022/12/13 19:55:34;;;;;;;9.27;5.10;;;-1.40;99.90;;;;;;4878853;29;20218;-74
2022/12/13 19:58:02;;;;;;;9.50;4.43;;;-1.40;99.90;;;;;;4878429;29;20219;-74
2022/12/13 20:00:29;;;;;;;10.13;4.60;;;-1.40;99.90;;;;;;4877683;29;20215;-73
2022/12/13 20:02:56;;;;;;;9.20;3.97;;;-1.40;99.90;;;;;;4878296;29;20214;-73
2022/12/13 20:05:24;;;;;;;11.90;5.50;;;-1.40;99.90;;;;;;4878628;29;20218;-73
2022/12/13 20:07:56;;;;;;;7.50;3.83;;;-1.40;99.90;;;;;;4878146;29;20255;-74
2022/12/13 20:10:23;;;;;;;12.07;3.60;;;-1.40;99.90;;;;;;4876424;29;20239;-73
2022/12/13 20:12:50;;;;;;;11.27;4.77;;;-1.50;99.90;;;;;;4878270;29;20207;-74
2022/12/13 20:15:18;;;;;;;10.60;3.97;;;-1.50;99.90;;;;;;4878006;29;20555;-74
2022/12/13 20:17:45;;;;;;;7.50;3.67;;;-1.40;99.90;;;;;;4877880;29;20234;-73
2022/12/13 20:20:12;;;;;;;9.73;4.77;;;-1.40;99.90;;;;;;4877883;29;20608;-74
2022/12/13 20:22:38;;;;;;;12.23;5.30;;;-1.40;99.90;;;;;;4878691;29;20207;-73
2022/12/13 20:25:06;;;;;;;11.47;5.47;;;-1.30;99.90;;;;;;4879037;29;20204;-74
2022/12/13 20:27:34;;;;;;;13.60;5.00;;;-1.20;99.90;;;;;;4878578;29;20631;-74
2022/12/13 20:30:00;;;;;;;13.47;5.17;;;-1.20;99.90;;;;;;4878663;29;20234;-74
2022/12/13 20:32:28;;;;;;;10.37;5.13;;;-1.20;99.90;;;;;;4878477;29;20209;-74
2022/12/13 20:34:55;;;;;;;9.77;5.43;;;-1.20;99.90;;;;;;4878495;29;20608;-73
2022/12/13 20:37:22;;;;;;;15.20;5.60;;;-1.20;99.90;;;;;;4878848;29;20234;-73
2022/12/13 20:39:49;;;;;;;10.50;4.90;;;-1.30;99.90;;;;;;4878899;29;20199;-74
2022/12/13 20:42:16;;;;;;;10.60;4.53;;;-1.30;99.90;;;;;;4875796;29;20211;-73
2022/12/13 20:44:43;;;;;;;8.23;4.30;;;-1.30;99.90;;;;;;4878421;29;20199;-74
2022/12/13 20:47:13;;;;;;;13.90;5.57;;;-1.40;99.90;;;;;;4878591;29;20293;-74
2022/12/13 20:49:43;;;;;;;13.90;5.63;;;-1.40;99.90;;;;;;4876462;29;20239;-73
2022/12/13 20:52:09;;;;;;;9.10;4.20;;;-1.40;99.90;;;;;;4878615;29;20556;-73
2022/12/13 20:54:36;;;;;;;9.33;4.43;;;-1.40;99.90;;;;;;4878746;29;20215;-74
2022/12/13 20:57:03;;;;;;;9.60;4.47;;;-1.40;99.90;;;;;;4877841;29;20204;-74
2022/12/13 20:59:31;;;;;;;11.83;5.23;;;-1.40;99.90;;;;;;4878692;29;20718;-73
2022/12/13 21:01:57;;;;;;;12.30;4.97;;;-1.40;99.90;;;;;;4878531;29;20207;-73
2022/12/13 21:04:24;;;;;;;13.20;5.30;;;-1.30;99.90;;;;;;4872411;29;20212;-72
2022/12/13 21:06:52;;;;;;;10.10;4.67;;;-1.30;99.90;;;;;;4873364;29;20675;-72
2022/12/13 21:09:19;;;;;;;7.13;3.60;;;-1.30;99.90;;;;;;4874825;29;20246;-72
2022/12/13 21:11:47;;;;;;;8.07;4.50;;;-1.30;99.90;;;;;;4874805;29;20218;-72
2022/12/13 21:14:16;;;;;;;8.77;4.80;;;-1.30;99.90;;;;;;4872880;29;20668;-72
2022/12/13 21:16:44;;;;;;;10.33;4.53;;;-1.40;99.90;;;;;;4876678;29;20672;-73
2022/12/13 21:19:13;;;;;;;11.40;4.23;;;-1.30;99.90;;;;;;4881840;29;20298;-73
2022/12/13 21:21:40;;;;;;;9.27;4.23;;;-1.30;99.90;;;;;;4871300;29;20624;-72
2022/12/13 21:24:10;;;;;;;10.40;4.50;;;-1.30;99.90;;;;;;4881199;29;20207;-72
2022/12/13 21:26:37;;;;;;;11.93;3.97;;;-1.30;99.90;;;;;;4872213;29;20207;-73
2022/12/13 21:29:06;;;;;;;11.00;4.57;;;-1.30;99.90;;;;;;4878975;29;20235;-72
2022/12/13 21:31:33;;;;;;;12.07;6.00;;;-1.30;99.90;;;;;;4875109;29;20215;-72
2022/12/13 21:34:01;;;;;;;11.53;4.37;;;-1.30;99.90;;;;;;4877152;29;20207;-72
2022/12/13 21:36:31;;;;;;;8.60;4.87;;;-1.20;99.90;;;;;;4874251;29;20217;-71
2022/12/13 21:38:59;;;;;;;9.70;4.60;;;-1.20;99.90;;;;;;4870240;29;20230;-72
2022/12/13 21:41:28;;;;;;;10.63;5.27;;;-1.20;99.90;;;;;;4878070;29;20293;-72
2022/12/13 21:43:55;;;;;;;10.23;4.87;;;-1.20;99.90;;;;;;4879792;29;22477;-72
2022/12/13 21:46:24;;;;;;;9.37;4.23;;;-1.20;99.90;;;;;;4876517;29;20215;-73
2022/12/13 21:48:52;;;;;;;9.93;4.87;;;-1.00;99.90;;;;;;4879048;29;20237;-74
2022/12/13 21:51:20;;;;;;;8.93;3.87;;;-1.00;99.90;;;;;;4874786;29;20220;-74
2022/12/13 21:53:49;;;;;;;9.93;4.07;;;-1.10;99.90;;;;;;4876886;29;20712;-74
2022/12/13 21:59:17;;;;;;;9.77;4.57;;;-1.20;99.90;;;;;;4881250;29;20250;-74